createdAt,value
2023-01-28T00:01:16.812Z,99881.53
2023-01-28T00:03:44.186Z,99885.16
2023-01-28T00:06:15.455Z,99880.34
2023-01-28T00:08:42.698Z,99881.91
2023-01-28T00:11:13.154Z,99883.53
2023-01-28T00:13:45.780Z,99884.34
2023-01-28T00:16:12.931Z,99885.63
2023-01-28T00:18:40.059Z,99893.44
2023-01-28T00:21:15.429Z,99892.50
2023-01-28T00:23:47.127Z,99891.16
2023-01-28T00:26:17.451Z,99893.94
2023-01-28T00:28:48.699Z,99902.69
2023-01-28T00:31:19.310Z,99901.34
2023-01-28T00:33:50.525Z,99899.84
2023-01-28T00:36:26.358Z,99901.88
2023-01-28T00:38:58.409Z,99904.47
2023-01-28T00:41:30.065Z,99902.66
2023-01-28T00:43:57.619Z,99892.84
2023-01-28T00:46:25.642Z,99899.72
2023-01-28T00:48:55.484Z,99907.88
2023-01-28T00:51:25.467Z,99912.63
2023-01-28T00:54:04.783Z,99910.38
2023-01-28T00:56:36.672Z,99908.97
2023-01-28T00:59:11.002Z,99904.50
2023-01-28T01:01:38.305Z,99910.13
2023-01-28T01:04:10.621Z,99914.59
2023-01-28T01:06:40.713Z,99917.28
2023-01-28T01:09:11.921Z,99919.66
2023-01-28T01:11:39.145Z,99921.97
2023-01-28T01:14:06.441Z,99924.25
2023-01-28T01:16:35.684Z,99919.63
2023-01-28T01:19:02.872Z,99927.13
2023-01-28T01:21:30.835Z,99929.66
2023-01-28T01:24:07.675Z,99928.50
2023-01-28T01:26:34.856Z,99923.63
2023-01-28T01:29:04.558Z,99925.38
2023-01-28T01:31:36.962Z,99926.88
2023-01-28T01:34:04.065Z,99930.25
2023-01-28T01:36:31.402Z,99928.00
2023-01-28T01:38:58.565Z,99937.59
2023-01-28T01:41:29.868Z,99938.84
2023-01-28T01:44:02.361Z,99943.97
2023-01-28T01:46:38.360Z,99945.19
2023-01-28T01:49:20.683Z,99943.72
2023-01-28T01:51:51.181Z,99939.84
2023-01-28T01:54:23.686Z,99943.22
2023-01-28T01:56:51.689Z,99943.28
2023-01-28T01:59:24.642Z,99947.16
2023-01-28T02:01:56.084Z,99940.88
2023-01-28T02:04:30.964Z,99948.28
2023-01-28T02:07:01.446Z,99949.66
2023-01-28T02:09:33.748Z,99952.16
2023-01-28T02:12:12.102Z,99950.72
2023-01-28T02:15:10.168Z,99962.16
2023-01-28T02:17:40.908Z,99955.78
2023-01-28T02:20:11.151Z,99958.75
2023-01-28T02:23:00.108Z,99954.25
2023-01-28T02:25:39.456Z,99949.91
2023-01-28T02:28:28.274Z,99953.59
2023-01-28T02:31:09.813Z,99953.03
2023-01-28T02:34:18.116Z,99953.25
2023-01-28T02:36:53.457Z,99967.09
2023-01-28T02:39:27.065Z,99962.84
2023-01-28T02:42:18.912Z,99954.91
2023-01-28T02:44:46.073Z,99954.97
2023-01-28T02:47:14.936Z,99954.28
2023-01-28T02:49:59.205Z,99956.78
2023-01-28T02:53:00.055Z,99958.41
2023-01-28T02:56:01.345Z,99962.34
2023-01-28T02:59:21.512Z,99950.19
2023-01-28T03:02:21.548Z,99946.88
2023-01-28T03:05:15.210Z,99946.28
2023-01-28T03:07:46.570Z,99939.09
2023-01-28T03:10:21.701Z,99934.78
2023-01-28T03:12:53.602Z,99936.75
2023-01-28T03:15:29.657Z,99944.44
2023-01-28T03:18:27.577Z,99935.59
2023-01-28T03:21:09.426Z,99939.25
2023-01-28T03:23:45.913Z,99945.25
2023-01-28T03:26:15.614Z,99949.28
2023-01-28T03:28:46.705Z,99948.28
2023-01-28T03:31:16.396Z,99948.03
2023-01-28T03:33:44.453Z,99946.31
2023-01-28T03:36:11.851Z,99949.66
2023-01-28T03:38:41.728Z,99944.59
2023-01-28T03:41:12.454Z,99958.50
2023-01-28T03:43:43.375Z,99949.16
2023-01-28T03:46:17.019Z,99962.03
2023-01-28T03:48:44.345Z,99957.13
2023-01-28T03:51:14.391Z,99957.28
2023-01-28T03:53:44.025Z,99950.13
2023-01-28T03:56:11.183Z,99957.69
2023-01-28T03:58:38.272Z,99950.66
2023-01-28T04:01:08.303Z,99947.09
2023-01-28T04:03:35.427Z,99953.16
2023-01-28T04:06:05.802Z,99954.03
2023-01-28T04:08:36.608Z,99967.34
2023-01-28T04:11:03.838Z,99972.75
2023-01-28T04:13:30.891Z,99968.91
2023-01-28T04:15:58.066Z,99972.81
2023-01-28T04:18:27.759Z,99976.72
2023-01-28T04:20:54.973Z,99980.03
2023-01-28T04:23:24.847Z,99968.97
2023-01-28T04:25:55.390Z,99978.50
2023-01-28T04:28:31.388Z,99980.41
2023-01-28T04:30:59.256Z,99985.38
2023-01-28T04:33:29.455Z,99981.34
2023-01-28T04:35:59.267Z,99988.22
2023-01-28T04:38:31.223Z,99986.34
2023-01-28T04:41:04.069Z,100001.03
2023-01-28T04:43:33.521Z,100004.97
2023-01-28T04:46:00.755Z,100007.72
2023-01-28T04:48:28.052Z,100003.94
2023-01-28T04:50:55.338Z,100007.97
2023-01-28T04:53:24.201Z,100007.84
2023-01-28T04:55:51.399Z,100002.94
2023-01-28T04:58:18.717Z,100012.91
2023-01-28T05:00:59.779Z,100010.53
2023-01-28T05:03:35.248Z,100001.06
2023-01-28T05:06:03.458Z,100010.84
2023-01-28T05:08:30.875Z,100010.22
2023-01-28T05:11:03.264Z,100010.88
2023-01-28T05:13:30.950Z,100021.94
2023-01-28T05:16:00.668Z,100026.66
2023-01-28T05:18:32.046Z,100031.31
2023-01-28T05:21:06.332Z,100030.38
2023-01-28T05:23:36.601Z,100034.38
2023-01-28T05:26:04.671Z,100032.63
2023-01-28T05:28:32.637Z,100027.28
2023-01-28T05:31:12.839Z,100030.47
2023-01-28T05:33:42.713Z,100033.84
2023-01-28T05:36:11.509Z,100044.19
2023-01-28T05:38:41.767Z,100041.47
2023-01-28T05:41:13.998Z,100041.91
2023-01-28T05:43:47.048Z,100038.69
2023-01-28T05:46:15.041Z,100043.50
2023-01-28T05:48:44.963Z,100048.34
2023-01-28T05:51:23.525Z,100053.84
2023-01-28T05:53:57.201Z,100052.44
2023-01-28T05:56:24.375Z,100050.31
2023-01-28T05:59:00.043Z,100048.28
2023-01-28T06:01:33.997Z,100040.59
2023-01-28T06:04:05.815Z,100042.06
2023-01-28T06:06:37.341Z,100041.34
2023-01-28T06:09:04.563Z,100049.94
2023-01-28T06:14:33.242Z,100058.50
2023-01-28T06:17:00.935Z,100055.78
2023-01-28T06:19:33.995Z,100063.59
2023-01-28T06:22:07.691Z,100062.38
2023-01-28T06:24:39.521Z,100061.84
2023-01-28T06:27:06.668Z,100066.47
2023-01-28T06:29:36.768Z,100073.91
2023-01-28T06:32:15.242Z,100071.22
2023-01-28T06:34:53.094Z,100074.69
2023-01-28T06:37:26.366Z,100078.06
2023-01-28T06:39:53.509Z,100083.22
2023-01-28T06:42:32.847Z,100081.66
2023-01-28T06:45:02.152Z,100074.81
2023-01-28T06:47:32.308Z,100076.94
2023-01-28T06:49:59.436Z,100078.75
2023-01-28T06:52:32.645Z,100083.66
2023-01-28T06:55:02.490Z,100088.13
2023-01-28T06:57:32.965Z,100100.56
2023-01-28T07:00:05.876Z,100101.78
2023-01-28T07:02:33.025Z,100108.28
2023-01-28T07:05:02.716Z,100110.16
2023-01-28T07:07:29.822Z,100116.28
2023-01-28T07:09:56.957Z,100110.06
2023-01-28T07:12:31.006Z,100103.94
2023-01-28T07:15:00.321Z,100114.78
2023-01-28T07:17:27.588Z,100110.31
2023-01-28T07:20:01.340Z,100108.81
2023-01-28T07:22:33.680Z,100116.25
2023-01-28T07:25:02.658Z,100121.69
2023-01-28T07:27:32.437Z,100128.13
2023-01-28T07:30:03.350Z,100116.72
2023-01-28T07:32:32.423Z,100127.84
2023-01-28T07:35:00.415Z,100127.97
2023-01-28T07:37:27.586Z,100126.53
2023-01-28T07:39:54.679Z,100128.97
2023-01-28T07:42:21.952Z,100142.81
2023-01-28T07:44:57.262Z,100137.22
2023-01-28T07:47:26.846Z,100144.28
2023-01-28T07:49:54.956Z,100143.47
2023-01-28T07:52:22.124Z,100145.94
2023-01-28T07:54:54.581Z,100146.41
2023-01-28T07:57:21.705Z,100141.19
2023-01-28T07:59:51.821Z,100144.38
2023-01-28T08:02:19.384Z,100148.41
2023-01-28T08:04:46.874Z,100153.44
2023-01-28T08:07:14.136Z,100149.84
2023-01-28T08:09:41.329Z,100153.84
2023-01-28T08:12:09.426Z,100158.25
2023-01-28T08:14:36.874Z,100157.53
2023-01-28T08:17:04.545Z,100165.63
2023-01-28T08:19:31.841Z,100165.66
2023-01-28T08:21:59.043Z,100162.31
2023-01-28T08:24:26.269Z,100169.22
2023-01-28T08:26:53.524Z,100174.28
2023-01-28T08:29:20.814Z,100174.97
2023-01-28T08:31:48.326Z,100176.19
2023-01-28T08:34:15.656Z,100177.72
2023-01-28T08:36:43.472Z,100181.97
2023-01-28T08:39:10.894Z,100181.69
2023-01-28T08:41:38.420Z,100183.75
2023-01-28T08:44:05.658Z,100181.94
2023-01-28T08:46:33.326Z,100184.38
2023-01-28T08:49:00.597Z,100186.38
2023-01-28T08:51:27.783Z,100178.59
2023-01-28T08:53:55.421Z,100179.69
2023-01-28T08:56:22.677Z,100179.47
2023-01-28T08:58:49.883Z,100183.69
2023-01-28T09:01:17.415Z,100180.44
2023-01-28T09:03:44.745Z,100180.38
2023-01-28T09:06:12.927Z,100177.88
2023-01-28T09:08:41.085Z,100180.38
2023-01-28T09:11:08.327Z,100178.28
2023-01-28T09:13:35.555Z,100185.53
2023-01-28T09:16:05.596Z,100190.56
2023-01-28T09:18:32.945Z,100188.91
2023-01-28T09:21:00.103Z,100194.16
2023-01-28T09:23:27.319Z,100192.84
2023-01-28T09:26:00.638Z,100194.91
2023-01-28T09:28:27.885Z,100192.69
2023-01-28T09:31:07.939Z,100192.69
2023-01-28T09:33:36.565Z,100189.59
2023-01-28T09:36:06.630Z,100192.16
2023-01-28T09:38:34.282Z,100199.38
2023-01-28T09:41:08.612Z,100192.44
2023-01-28T09:43:47.643Z,100193.66
2023-01-28T09:46:16.188Z,100187.41
2023-01-28T09:48:48.728Z,100185.53
2023-01-28T09:51:42.877Z,100189.78
2023-01-28T09:54:38.303Z,100194.78
2023-01-28T09:57:18.717Z,100198.00
2023-01-28T09:59:45.986Z,100195.59
2023-01-28T10:02:49.194Z,100187.44
2023-01-28T10:05:25.528Z,100190.06
2023-01-28T10:08:07.236Z,100192.66
2023-01-28T10:10:47.148Z,100194.53
2023-01-28T10:13:29.440Z,100190.59
2023-01-28T10:16:02.418Z,100183.34
2023-01-28T10:18:35.766Z,100183.34
2023-01-28T10:21:11.396Z,100187.50
2023-01-28T10:23:51.243Z,100189.38
2023-01-28T10:26:32.277Z,100188.69
2023-01-28T10:29:05.292Z,100194.03
2023-01-28T10:31:39.849Z,100187.44
2023-01-28T10:34:07.152Z,100187.16
2023-01-28T10:36:35.260Z,100184.78
2023-01-28T10:39:02.788Z,100183.22
2023-01-28T10:41:30.448Z,100186.06
2023-01-28T10:43:57.784Z,100181.78
2023-01-28T10:46:34.812Z,100183.84
2023-01-28T10:49:19.652Z,100182.00
2023-01-28T10:51:47.005Z,100182.69
2023-01-28T10:54:28.762Z,100184.13
2023-01-28T10:57:00.746Z,100189.19
2023-01-28T10:59:33.967Z,100179.06
2023-01-28T11:02:19.587Z,100178.31
2023-01-28T11:04:47.046Z,100177.28
2023-01-28T11:07:20.109Z,100183.16
2023-01-28T11:09:50.137Z,100184.75
2023-01-28T11:12:24.297Z,100181.13
2023-01-28T11:15:04.347Z,100181.09
2023-01-28T11:17:38.107Z,100180.41
2023-01-28T11:20:19.484Z,100175.78
2023-01-28T11:22:47.923Z,100181.25
2023-01-28T11:25:27.308Z,100177.13
2023-01-28T11:27:56.095Z,100176.09
2023-01-28T11:30:36.636Z,100173.53
2023-01-28T11:33:23.700Z,100169.44
2023-01-28T11:36:04.097Z,100169.75
2023-01-28T11:38:35.015Z,100168.97
2023-01-28T11:41:02.909Z,100168.16
2023-01-28T11:43:31.724Z,100166.63
2023-01-28T11:46:05.006Z,100168.38
2023-01-28T11:48:59.909Z,100167.00
2023-01-28T11:51:46.041Z,100170.44
2023-01-28T11:54:20.834Z,100174.47
2023-01-28T11:57:17.849Z,100164.09
2023-01-28T12:00:02.969Z,100163.81
2023-01-28T12:02:50.957Z,100161.91
2023-01-28T12:05:18.224Z,100168.47
2023-01-28T12:08:01.879Z,100166.31
2023-01-28T12:10:32.228Z,100166.84
2023-01-28T12:13:24.264Z,100162.03
2023-01-28T12:16:19.091Z,100164.13
2023-01-28T12:18:49.506Z,100157.16
2023-01-28T12:21:30.469Z,100167.16
2023-01-28T12:24:03.630Z,100168.19
2023-01-28T12:26:55.966Z,100166.13
2023-01-28T12:29:46.853Z,100165.16
2023-01-28T12:32:35.955Z,100164.09
2023-01-28T12:35:14.200Z,100165.78
2023-01-28T12:37:56.674Z,100167.72
2023-01-28T12:41:05.864Z,100173.75
2023-01-28T12:43:51.252Z,100164.50
2023-01-28T12:46:27.902Z,100161.22
2023-01-28T12:49:03.923Z,100171.63
2023-01-28T12:51:40.644Z,100167.75
2023-01-28T12:54:21.878Z,100166.13
2023-01-28T12:56:54.909Z,100166.59
2023-01-28T12:59:25.457Z,100167.03
2023-01-28T13:02:11.460Z,100175.69
2023-01-28T13:04:52.763Z,100172.81
2023-01-28T13:07:42.731Z,100166.50
2023-01-28T13:10:16.410Z,100179.09
2023-01-28T13:12:44.391Z,100181.50
2023-01-28T13:15:18.200Z,100171.78
2023-01-28T13:17:54.848Z,100169.53
2023-01-28T13:20:48.216Z,100172.59
2023-01-28T13:23:48.627Z,100185.34
2023-01-28T13:26:19.085Z,100177.03
2023-01-28T13:28:54.968Z,100183.25
2023-01-28T13:31:24.356Z,100183.03
2023-01-28T13:33:54.679Z,100187.72
2023-01-28T13:36:29.315Z,100191.53
2023-01-28T13:39:06.610Z,100187.66
2023-01-28T13:41:41.574Z,100196.38
2023-01-28T13:44:33.000Z,100191.94
2023-01-28T13:47:09.521Z,100195.47
2023-01-28T13:49:46.953Z,100198.13
2023-01-28T13:52:16.184Z,100196.44
2023-01-28T13:55:12.475Z,100200.69
2023-01-28T13:58:04.418Z,100197.81
2023-01-28T14:00:32.454Z,100201.16
2023-01-28T14:03:20.812Z,100206.66
2023-01-28T14:05:54.165Z,100201.38
2023-01-28T14:08:36.986Z,100207.31
2023-01-28T14:11:16.511Z,100208.28
2023-01-28T14:14:01.794Z,100210.63
2023-01-28T14:16:50.084Z,100210.53
2023-01-28T14:19:20.262Z,100206.06
2023-01-28T14:21:47.557Z,100206.63
2023-01-28T14:24:18.700Z,100208.06
2023-01-28T14:26:48.695Z,100213.03
2023-01-28T14:29:21.815Z,100212.25
2023-01-28T14:31:50.805Z,100207.59
2023-01-28T14:34:22.087Z,100211.19
2023-01-28T14:36:50.989Z,100210.69
2023-01-28T14:39:21.855Z,100207.75
2023-01-28T14:41:52.629Z,100208.56
2023-01-28T14:44:38.877Z,100216.03
2023-01-28T14:47:18.290Z,100211.94
2023-01-28T14:50:25.220Z,100220.81
2023-01-28T14:53:00.645Z,100221.47
2023-01-28T14:55:32.785Z,100226.00
2023-01-28T14:58:06.526Z,100220.31
2023-01-28T15:00:35.237Z,100234.38
2023-01-28T15:03:24.799Z,100225.00
2023-01-28T15:06:07.058Z,100232.81
2023-01-28T15:08:34.284Z,100241.22
2023-01-28T15:11:02.915Z,100234.66
2023-01-28T15:13:34.333Z,100236.22
2023-01-28T15:16:01.950Z,100243.69
2023-01-28T15:18:34.029Z,100253.09
2023-01-28T15:21:02.501Z,100246.25
2023-01-28T15:23:35.947Z,100259.34
2023-01-28T15:26:18.221Z,100267.66
2023-01-28T15:28:47.292Z,100263.44
2023-01-28T15:31:31.161Z,100260.41
2023-01-28T15:34:13.270Z,100257.38
2023-01-28T15:36:43.326Z,100267.38
2023-01-28T15:39:20.142Z,100263.75
2023-01-28T15:41:55.247Z,100263.72
2023-01-28T15:44:29.974Z,100273.81
2023-01-28T15:46:59.139Z,100280.56
2023-01-28T15:49:36.694Z,100281.19
2023-01-28T15:52:04.396Z,100284.47
2023-01-28T15:54:38.772Z,100287.94
2023-01-28T15:57:30.693Z,100285.78
2023-01-28T16:00:11.690Z,100294.38
2023-01-28T16:02:48.288Z,100293.03
2023-01-28T16:05:39.821Z,100290.25
2023-01-28T16:08:27.106Z,100290.69
2023-01-28T16:10:56.532Z,100284.94
2023-01-28T16:13:28.688Z,100288.59
2023-01-28T16:15:57.582Z,100300.44
2023-01-28T16:18:56.532Z,100292.31
2023-01-28T16:21:29.317Z,100291.69
2023-01-28T16:24:01.822Z,100296.53
2023-01-28T16:26:31.088Z,100307.31
2023-01-28T16:29:00.786Z,100307.09
2023-01-28T16:31:28.207Z,100313.97
2023-01-28T16:33:55.707Z,100309.75
2023-01-28T16:36:24.220Z,100318.06
2023-01-28T16:38:51.377Z,100317.97
2023-01-28T16:41:26.274Z,100322.91
2023-01-28T16:43:53.776Z,100318.84
2023-01-28T16:46:21.479Z,100327.03
2023-01-28T16:48:48.985Z,100329.56
2023-01-28T16:51:18.414Z,100330.63
2023-01-28T16:53:47.891Z,100325.34
2023-01-28T16:56:44.073Z,100336.31
2023-01-28T16:59:15.867Z,100340.88
2023-01-28T17:01:44.571Z,100336.91
2023-01-28T17:04:13.157Z,100341.00
2023-01-28T17:06:44.603Z,100337.72
2023-01-28T17:09:13.210Z,100344.16
2023-01-28T17:11:40.809Z,100341.44
2023-01-28T17:14:09.533Z,100354.47
2023-01-28T17:16:36.887Z,100347.25
2023-01-28T17:19:22.279Z,100356.50
2023-01-28T17:21:49.888Z,100357.31
2023-01-28T17:24:17.415Z,100355.16
2023-01-28T17:26:52.780Z,100357.81
2023-01-28T17:29:20.071Z,100358.16
2023-01-28T17:31:47.230Z,100360.19
2023-01-28T17:34:14.560Z,100360.50
2023-01-28T17:36:41.944Z,100362.81
2023-01-28T17:39:12.694Z,100372.38
2023-01-28T17:41:41.822Z,100369.28
2023-01-28T17:44:13.401Z,100365.84
2023-01-28T17:46:41.295Z,100370.69
2023-01-28T17:49:08.523Z,100372.94
2023-01-28T17:51:36.119Z,100372.84
2023-01-28T17:54:03.568Z,100371.84
2023-01-28T17:56:31.118Z,100379.09
2023-01-28T17:59:01.030Z,100373.34
2023-01-28T18:01:28.667Z,100378.97
2023-01-28T18:03:57.429Z,100378.53
2023-01-28T18:06:24.624Z,100378.97
2023-01-28T18:08:51.903Z,100383.00
2023-01-28T18:11:19.804Z,100377.28
2023-01-28T18:13:47.102Z,100386.59
2023-01-28T18:16:17.003Z,100389.19
2023-01-28T18:18:44.857Z,100386.59
2023-01-28T18:21:42.915Z,100382.56
2023-01-28T18:24:18.142Z,100388.19
2023-01-28T18:26:45.336Z,100390.78
2023-01-28T18:29:12.608Z,100393.53
2023-01-28T18:31:43.725Z,100399.22
2023-01-28T18:34:11.259Z,100399.78
2023-01-28T18:36:38.398Z,100396.75
2023-01-28T18:39:06.231Z,100404.84
2023-01-28T18:41:33.474Z,100395.53
2023-01-28T18:44:00.669Z,100396.69
2023-01-28T18:46:27.857Z,100406.84
2023-01-28T18:48:57.123Z,100406.72
2023-01-28T18:51:30.349Z,100409.13
2023-01-28T18:53:59.690Z,100411.03
2023-01-28T18:56:28.599Z,100410.91
2023-01-28T18:59:00.615Z,100412.56
2023-01-28T19:01:29.080Z,100414.03
2023-01-28T19:03:57.297Z,100419.91
2023-01-28T19:06:26.055Z,100413.00
2023-01-28T19:08:55.326Z,100416.84
2023-01-28T19:11:24.869Z,100417.75
2023-01-28T19:13:53.650Z,100420.22
2023-01-28T19:16:21.784Z,100418.00
2023-01-28T19:18:58.123Z,100415.75
2023-01-28T19:21:26.769Z,100420.22
2023-01-28T19:23:59.066Z,100412.84
2023-01-28T19:26:27.654Z,100423.97
2023-01-28T19:28:55.076Z,100429.09
2023-01-28T19:31:26.575Z,100427.41
2023-01-28T19:33:57.774Z,100416.28
2023-01-28T19:36:27.098Z,100429.94
2023-01-28T19:38:59.792Z,100429.22
2023-01-28T19:41:28.577Z,100424.91
2023-01-28T19:43:56.397Z,100427.06
2023-01-28T19:46:23.954Z,100426.88
2023-01-28T19:48:51.691Z,100423.19
2023-01-28T19:51:21.607Z,100431.28
2023-01-28T19:53:53.631Z,100438.50
2023-01-28T19:56:25.765Z,100433.50
2023-01-28T19:58:54.664Z,100431.47
2023-01-28T20:01:24.592Z,100427.75
2023-01-28T20:03:54.255Z,100431.09
2023-01-28T20:06:23.048Z,100430.09
2023-01-28T20:08:55.421Z,100433.72
2023-01-28T20:11:23.572Z,100429.91
2023-01-28T20:13:51.981Z,100431.13
2023-01-28T20:16:22.188Z,100431.38
2023-01-28T20:18:55.566Z,100429.97
2023-01-28T20:21:23.757Z,100428.53
2023-01-28T20:23:54.750Z,100432.19
2023-01-28T20:26:26.683Z,100428.91
2023-01-28T20:28:59.453Z,100436.00
2023-01-28T20:31:27.259Z,100437.63
2023-01-28T20:33:54.520Z,100440.56
2023-01-28T20:36:25.627Z,100439.94
2023-01-28T20:38:52.948Z,100438.75
2023-01-28T20:41:23.111Z,100442.13
2023-01-28T20:43:56.371Z,100448.19
2023-01-28T20:46:27.300Z,100447.28
2023-01-28T20:48:56.360Z,100442.59
2023-01-28T20:51:29.386Z,100443.13
2023-01-28T20:54:01.508Z,100442.28
2023-01-28T20:56:52.093Z,100450.00
2023-01-28T20:59:38.121Z,100444.91
2023-01-28T21:02:06.461Z,100450.81
2023-01-28T21:04:33.932Z,100435.56
2023-01-28T21:07:01.596Z,100450.00
2023-01-28T21:09:28.888Z,100445.56
2023-01-28T21:11:56.393Z,100452.66
2023-01-28T21:14:23.797Z,100452.63
2023-01-28T21:16:51.398Z,100456.50
2023-01-28T21:19:19.474Z,100448.75
2023-01-28T21:21:46.774Z,100452.00
2023-01-28T21:24:14.072Z,100458.06
2023-01-28T21:26:41.296Z,100449.84
2023-01-28T21:29:08.707Z,100456.41
2023-01-28T21:31:36.064Z,100457.22
2023-01-28T21:34:03.347Z,100458.69
2023-01-28T21:36:30.603Z,100467.00
2023-01-28T21:39:00.106Z,100464.53
2023-01-28T21:41:27.976Z,100461.78
2023-01-28T21:43:56.165Z,100460.97
2023-01-28T21:46:26.166Z,100466.66
2023-01-28T21:48:55.376Z,100466.84
2023-01-28T21:51:23.113Z,100464.00
2023-01-28T21:53:50.408Z,100456.03
2023-01-28T21:56:18.079Z,100460.88
2023-01-28T21:58:45.303Z,100465.97
2023-01-28T22:01:12.601Z,100469.81
2023-01-28T22:03:57.935Z,100478.59
2023-01-28T22:06:39.825Z,100478.44
2023-01-28T22:09:18.730Z,100479.44
2023-01-28T22:11:46.305Z,100473.91
2023-01-28T22:14:13.977Z,100479.97
2023-01-28T22:16:41.710Z,100476.72
2023-01-28T22:19:09.569Z,100479.66
2023-01-28T22:21:36.667Z,100484.28
2023-01-28T22:24:05.658Z,100482.06
2023-01-28T22:26:32.966Z,100479.88
2023-01-28T22:29:00.246Z,100479.38
2023-01-28T22:31:27.742Z,100491.75
2023-01-28T22:33:55.400Z,100492.31
2023-01-28T22:36:22.494Z,100487.31
2023-01-28T22:38:49.633Z,100481.53
2023-01-28T22:41:18.959Z,100479.16
2023-01-28T22:43:46.644Z,100478.78
2023-01-28T22:46:14.455Z,100472.69
2023-01-28T22:48:41.817Z,100473.09
2023-01-28T22:51:15.686Z,100486.09
2023-01-28T22:53:43.201Z,100486.06
2023-01-28T22:56:10.284Z,100481.66
2023-01-28T22:58:37.465Z,100490.84
2023-01-28T23:01:05.380Z,100481.75
2023-01-28T23:03:33.223Z,100485.22
2023-01-28T23:06:01.706Z,100495.59
2023-01-28T23:08:29.385Z,100484.25
2023-01-28T23:10:57.371Z,100482.00
2023-01-28T23:13:26.332Z,100493.78
2023-01-28T23:15:54.773Z,100490.75
2023-01-28T23:18:22.600Z,100498.25
2023-01-28T23:20:49.646Z,100499.06
2023-01-28T23:23:19.840Z,100504.94
2023-01-28T23:25:47.718Z,100495.84
2023-01-28T23:28:15.654Z,100505.97
2023-01-28T23:30:43.245Z,100497.66
2023-01-28T23:33:10.386Z,100508.41
2023-01-28T23:35:37.515Z,100497.63
2023-01-28T23:38:04.659Z,100504.91
2023-01-28T23:40:31.715Z,100506.72
2023-01-28T23:42:58.850Z,100506.38
2023-01-28T23:45:26.059Z,100511.22
2023-01-28T23:47:53.258Z,100504.56
2023-01-28T23:50:20.333Z,100508.44
2023-01-28T23:52:47.874Z,100511.50
2023-01-28T23:55:15.271Z,100509.69
2023-01-28T23:57:43.554Z,100504.44
